createdAt,value
2019-05-17T00:00:01.963Z,7.12
2019-05-17T00:02:37.431Z,7.09
2019-05-17T00:30:26.576Z,6.74
2019-05-17T00:32:57.074Z,6.77
2019-05-17T00:35:46.885Z,6.74
2019-05-17T00:38:47.540Z,6.75
2019-05-17T00:41:08.985Z,6.70
2019-05-17T00:43:39.381Z,6.73
2019-05-17T00:46:29.101Z,6.67
2019-05-17T00:48:59.453Z,6.59
2019-05-17T00:51:49.028Z,6.58
2019-05-17T00:54:38.406Z,6.54
2019-05-17T00:57:09.236Z,6.03
2019-05-17T00:59:39.991Z,6.43
2019-05-17T01:02:29.956Z,6.35
2019-05-17T01:05:00.776Z,6.34
2019-05-17T01:10:47.488Z,6.27
2019-05-17T01:13:40.110Z,6.27
2019-05-17T01:16:29.160Z,6.23
2019-05-17T01:19:01.119Z,6.20
2019-05-17T01:21:56.750Z,6.18
2019-05-17T01:24:28.941Z,6.06
2019-05-17T01:27:19.413Z,5.99
2019-05-17T01:30:10.555Z,5.97
2019-05-17T01:33:02.679Z,5.94
2019-05-17T01:35:46.646Z,5.52
2019-05-17T01:38:17.855Z,5.90
2019-05-17T01:40:59.279Z,5.88
2019-05-17T01:43:39.385Z,5.82
2019-05-17T01:46:13.434Z,5.83
2019-05-17T01:49:02.828Z,5.79
2019-05-17T01:51:33.590Z,5.74
2019-05-17T01:54:06.683Z,5.69
2019-05-17T01:56:56.643Z,5.72
2019-05-17T01:59:28.495Z,5.67
2019-05-17T02:02:23.113Z,5.64
2019-05-17T02:05:14.019Z,5.59
2019-05-17T02:08:03.553Z,5.55
2019-05-17T02:11:18.436Z,5.55
2019-05-17T02:14:08.321Z,5.52
2019-05-17T02:16:38.955Z,5.52
2019-05-17T02:19:31.151Z,5.48
2019-05-17T02:22:20.400Z,5.47
2019-05-17T02:28:01.541Z,5.42
2019-05-17T02:30:55.340Z,5.45
2019-05-17T02:33:44.626Z,5.55
2019-05-17T02:36:14.886Z,5.55
2019-05-17T02:38:47.519Z,5.52
2019-05-17T02:41:36.777Z,5.53
2019-05-17T02:44:07.426Z,5.13
2019-05-17T02:46:43.073Z,5.46
2019-05-17T02:49:33.135Z,5.42
2019-05-17T02:52:13.455Z,5.30
2019-05-17T02:55:04.020Z,5.26
2019-05-17T02:57:57.212Z,5.07
2019-05-17T03:00:47.454Z,5.22
2019-05-17T03:03:18.473Z,4.40
2019-05-17T03:06:07.981Z,5.22
2019-05-17T03:08:57.768Z,5.29
2019-05-17T03:11:47.367Z,5.25
2019-05-17T03:14:36.688Z,5.25
2019-05-17T03:17:07.144Z,4.46
2019-05-17T03:19:43.550Z,5.23
2019-05-17T03:22:33.137Z,5.17
2019-05-17T03:25:23.941Z,5.11
2019-05-17T03:28:06.675Z,5.09
2019-05-17T03:30:57.163Z,5.02
2019-05-17T03:33:35.183Z,5.00
2019-05-17T03:36:26.059Z,5.01
2019-05-17T03:39:06.586Z,5.04
2019-05-17T03:41:48.379Z,5.21
2019-05-17T03:44:32.996Z,5.12
2019-05-17T03:47:02.499Z,5.06
2019-05-17T03:49:53.238Z,4.96
2019-05-17T03:52:45.893Z,5.00
2019-05-17T03:55:37.523Z,4.99
2019-05-17T04:01:36.490Z,4.91
2019-05-17T04:04:28.729Z,4.89
2019-05-17T04:07:19.446Z,4.89
2019-05-17T04:13:19.690Z,4.86
2019-05-17T04:16:09.780Z,4.86
2019-05-17T04:18:43.767Z,4.06
2019-05-17T04:21:13.254Z,4.96
2019-05-17T04:24:03.357Z,4.93
2019-05-17T04:26:54.211Z,4.92
2019-05-17T04:29:44.091Z,4.94
2019-05-17T04:32:14.385Z,4.96
2019-05-17T04:35:04.009Z,4.99
2019-05-17T04:37:38.195Z,5.04
2019-05-17T04:40:06.580Z,5.06
2019-05-17T04:42:55.849Z,5.13
2019-05-17T04:45:45.215Z,5.20
2019-05-17T04:48:36.075Z,5.29
2019-05-17T04:57:23.281Z,5.53
2019-05-17T04:59:53.748Z,5.20
2019-05-17T05:02:47.112Z,5.73
2019-05-17T05:05:17.956Z,5.83
2019-05-17T05:07:49.138Z,5.93
2019-05-17T05:10:22.511Z,5.99
2019-05-17T05:12:54.783Z,6.08
2019-05-17T05:15:44.866Z,6.19
2019-05-17T05:18:54.216Z,6.30
2019-05-17T05:21:24.644Z,6.45
2019-05-17T05:23:58.582Z,6.55
2019-05-17T05:26:47.963Z,6.68
2019-05-17T05:29:23.315Z,6.79
2019-05-17T05:32:12.335Z,6.98
2019-05-17T05:34:46.382Z,7.13
2019-05-17T05:37:16.767Z,7.27
2019-05-17T05:42:38.267Z,7.51
2019-05-17T05:45:49.801Z,7.64
2019-05-17T05:48:21.750Z,7.77
2019-05-17T05:50:54.475Z,7.92
2019-05-17T05:53:43.740Z,8.06
2019-05-17T05:56:27.820Z,8.18
2019-05-17T05:59:11.887Z,8.29
2019-05-17T06:01:42.106Z,8.42
2019-05-17T06:04:14.219Z,8.58
2019-05-17T06:06:45.994Z,8.73
2019-05-17T06:09:35.344Z,8.85
2019-05-17T06:12:05.938Z,9.02
2019-05-17T06:14:36.263Z,9.18
2019-05-17T06:17:27.219Z,9.36
2019-05-17T06:19:57.577Z,9.53
2019-05-17T06:22:28.521Z,9.78
2019-05-17T06:25:36.693Z,10.00
2019-05-17T06:28:26.109Z,10.21
2019-05-17T06:31:16.844Z,10.49
2019-05-17T06:34:06.198Z,10.69
2019-05-17T06:36:36.521Z,10.83
2019-05-17T06:39:17.250Z,10.90
2019-05-17T06:42:37.049Z,11.03
2019-05-17T06:44:56.778Z,11.14
2019-05-17T06:47:27.386Z,11.25
2019-05-17T06:50:16.780Z,11.34
2019-05-17T06:52:47.078Z,11.43
2019-05-17T06:55:18.670Z,11.53
2019-05-17T06:57:48.943Z,11.65
2019-05-17T07:00:40.456Z,11.70
2019-05-17T07:03:31.943Z,11.83
2019-05-17T07:06:04.354Z,12.00
2019-05-17T07:08:53.644Z,12.16
2019-05-17T07:11:25.963Z,12.29
2019-05-17T07:14:03.177Z,12.31
2019-05-17T07:16:52.459Z,12.43
2019-05-17T07:19:41.837Z,12.53
2019-05-17T07:22:12.129Z,12.67
2019-05-17T07:25:01.485Z,12.90
2019-05-17T07:27:41.601Z,13.05
2019-05-17T07:33:14.011Z,13.24
2019-05-17T07:35:44.651Z,13.35
2019-05-17T07:38:15.180Z,13.62
2019-05-17T07:40:50.158Z,13.60
2019-05-17T07:43:20.786Z,13.73
2019-05-17T07:45:51.174Z,13.91
2019-05-17T07:48:25.032Z,14.15
2019-05-17T07:50:54.935Z,14.20
2019-05-17T07:53:25.216Z,14.40
2019-05-17T07:55:55.800Z,14.37
2019-05-17T07:58:26.285Z,14.42
2019-05-17T08:01:15.829Z,14.41
2019-05-17T08:03:50.154Z,14.28
2019-05-17T08:06:21.314Z,14.64
2019-05-17T08:09:16.987Z,15.09
2019-05-17T08:11:47.240Z,15.32
2019-05-17T08:14:29.389Z,15.61
2019-05-17T08:16:50.176Z,15.75
2019-05-17T08:19:40.337Z,15.89
2019-05-17T08:22:34.639Z,15.98
2019-05-17T08:25:23.315Z,16.24
2019-05-17T08:28:12.562Z,16.77
2019-05-17T08:30:42.937Z,17.63
2019-05-17T08:33:13.494Z,18.52
2019-05-17T08:39:11.408Z,19.56
2019-05-17T08:41:52.886Z,19.68
2019-05-17T08:44:23.141Z,20.00
2019-05-17T08:47:14.798Z,20.54
2019-05-17T08:50:07.960Z,20.98
2019-05-17T08:52:45.932Z,21.45
2019-05-17T08:55:16.456Z,21.34
2019-05-17T08:57:56.437Z,21.51
2019-05-17T09:00:26.776Z,22.37
2019-05-17T09:03:16.322Z,22.04
2019-05-17T09:05:46.764Z,22.77
2019-05-17T09:08:36.064Z,22.78
2019-05-17T09:11:19.705Z,22.95
2019-05-17T09:14:11.835Z,23.77
2019-05-17T09:16:56.913Z,23.15
2019-05-17T09:19:27.217Z,23.82
2019-05-17T09:22:16.539Z,23.92
2019-05-17T09:25:06.211Z,24.34
2019-05-17T09:27:39.845Z,24.21
2019-05-17T09:30:31.389Z,24.39
2019-05-17T09:33:01.833Z,24.62
2019-05-17T09:35:36.405Z,23.96
2019-05-17T09:38:25.752Z,24.49
2019-05-17T09:41:19.874Z,25.38
2019-05-17T09:44:15.582Z,25.59
2019-05-17T09:47:20.645Z,25.32
2019-05-17T09:49:51.095Z,25.41
2019-05-17T09:52:41.728Z,25.48
2019-05-17T09:55:16.365Z,26.18
2019-05-17T09:57:46.811Z,26.18
2019-05-17T10:00:20.787Z,25.76
2019-05-17T10:03:44.222Z,26.48
2019-05-17T10:06:12.920Z,26.06
2019-05-17T10:09:02.172Z,25.14
2019-05-17T10:11:32.591Z,24.69
2019-05-17T10:14:02.889Z,24.48
2019-05-17T10:16:33.514Z,24.18
2019-05-17T10:19:03.858Z,24.44
2019-05-17T10:21:35.399Z,24.79
2019-05-17T10:24:06.048Z,24.80
2019-05-17T10:29:50.118Z,25.10
2019-05-17T10:32:20.797Z,25.24
2019-05-17T10:34:55.162Z,24.75
2019-05-17T10:40:17.778Z,23.92
2019-05-17T10:42:51.283Z,23.46
2019-05-17T10:45:40.706Z,23.21
2019-05-17T10:48:30.254Z,23.01
2019-05-17T10:51:20.795Z,22.86
2019-05-17T11:00:10.141Z,23.84
2019-05-17T11:02:46.413Z,23.59
2019-05-17T11:05:20.118Z,23.70
2019-05-17T11:07:52.897Z,23.06
2019-05-17T11:10:42.195Z,22.63
2019-05-17T11:13:14.255Z,22.67
2019-05-17T11:16:27.076Z,23.26
2019-05-17T11:19:16.361Z,23.12
2019-05-17T11:22:06.245Z,22.58
2019-05-17T11:24:56.842Z,22.63
2019-05-17T11:27:27.177Z,22.41
2019-05-17T11:30:16.645Z,22.11
2019-05-17T11:33:26.623Z,22.52
2019-05-17T11:36:04.007Z,22.65
2019-05-17T11:38:54.712Z,22.81
2019-05-17T11:41:36.481Z,23.38
2019-05-17T11:44:20.055Z,24.53
2019-05-17T11:47:01.363Z,25.51
2019-05-17T11:49:35.036Z,25.37
2019-05-17T11:52:05.389Z,25.41
2019-05-17T11:54:39.030Z,24.53
2019-05-17T11:57:15.553Z,23.42
2019-05-17T11:59:46.185Z,23.07
2019-05-17T12:02:58.512Z,23.13
2019-05-17T12:08:56.161Z,22.65
2019-05-17T12:11:45.700Z,22.64
2019-05-17T12:14:36.107Z,22.68
2019-05-17T12:17:26.008Z,22.77
2019-05-17T12:20:25.740Z,22.99
2019-05-17T12:25:56.069Z,23.13
2019-05-17T12:28:37.514Z,23.59
2019-05-17T12:31:08.671Z,24.06
2019-05-17T12:33:58.079Z,23.97
2019-05-17T12:36:50.294Z,23.98
2019-05-17T12:39:20.795Z,24.06
2019-05-17T12:42:10.305Z,24.35
2019-05-17T12:44:40.916Z,24.47
2019-05-17T12:47:31.606Z,23.78
2019-05-17T12:50:39.938Z,24.03
2019-05-17T12:53:29.236Z,24.68
2019-05-17T12:56:01.874Z,24.96
2019-05-17T12:58:51.222Z,25.61
2019-05-17T13:01:40.791Z,26.00
2019-05-17T13:16:21.925Z,29.14
2019-05-17T13:18:55.917Z,30.31
2019-05-17T13:21:52.354Z,31.10
2019-05-17T13:27:24.998Z,31.05
2019-05-17T13:29:55.425Z,30.00
2019-05-17T13:32:28.620Z,30.39
2019-05-17T13:35:41.625Z,31.42
2019-05-17T13:38:32.211Z,31.80
2019-05-17T13:41:21.792Z,31.23
2019-05-17T13:44:31.495Z,30.57
2019-05-17T13:50:16.695Z,26.38
2019-05-17T13:53:28.618Z,25.24
2019-05-17T13:59:05.787Z,23.50
2019-05-17T14:01:36.139Z,23.25
2019-05-17T14:07:56.778Z,22.99
2019-05-17T14:10:48.257Z,23.47
2019-05-17T14:13:21.925Z,23.34
2019-05-17T14:16:13.483Z,22.97
2019-05-17T14:21:33.141Z,22.74
2019-05-17T14:24:03.716Z,22.56
2019-05-17T14:26:53.039Z,22.63
2019-05-17T14:29:42.648Z,22.81
2019-05-17T14:32:53.804Z,22.35
2019-05-17T14:35:24.496Z,23.07
2019-05-17T14:37:55.144Z,23.16
2019-05-17T14:41:00.348Z,22.96
2019-05-17T14:45:56.083Z,22.47
2019-05-17T14:48:31.248Z,22.00
2019-05-17T14:51:20.557Z,21.97
2019-05-17T14:54:06.703Z,21.50
2019-05-17T14:56:45.823Z,21.35
2019-05-17T14:59:28.679Z,21.11
2019-05-17T15:01:59.338Z,20.96
2019-05-17T15:04:51.242Z,20.87
2019-05-17T15:07:24.452Z,20.81
2019-05-17T15:09:56.277Z,20.91
2019-05-17T15:12:47.614Z,20.70
2019-05-17T15:19:05.523Z,20.26
2019-05-17T15:21:55.099Z,19.62
2019-05-17T15:24:44.374Z,17.98
2019-05-17T15:27:14.725Z,18.27
2019-05-17T15:29:46.378Z,18.30
2019-05-17T15:32:35.856Z,18.18
2019-05-17T15:35:27.175Z,17.94
2019-05-17T15:38:19.316Z,17.79
2019-05-17T15:40:49.595Z,17.91
2019-05-17T15:43:32.155Z,17.67
2019-05-17T15:46:15.929Z,17.47
2019-05-17T15:48:57.275Z,17.28
2019-05-17T15:51:27.920Z,17.09
2019-05-17T15:54:20.135Z,16.99
2019-05-17T15:56:50.599Z,16.94
2019-05-17T15:59:22.231Z,16.76
2019-05-17T16:04:44.966Z,16.70
2019-05-17T16:07:16.619Z,16.57
2019-05-17T16:10:28.737Z,16.58
2019-05-17T16:13:20.193Z,16.06
2019-05-17T16:15:50.471Z,16.43
2019-05-17T16:18:20.953Z,16.46
2019-05-17T16:20:52.151Z,16.49
2019-05-17T16:23:46.041Z,16.54
2019-05-17T16:26:16.393Z,16.50
2019-05-17T16:28:46.817Z,16.48
2019-05-17T16:31:36.192Z,16.41
2019-05-17T16:34:26.766Z,16.34
2019-05-17T16:37:00.161Z,16.21
2019-05-17T16:39:31.830Z,16.12
2019-05-17T16:42:02.261Z,16.04
2019-05-17T16:47:49.953Z,15.95
2019-05-17T16:50:26.168Z,15.89
2019-05-17T16:53:16.639Z,15.84
2019-05-17T16:55:49.719Z,15.87
2019-05-17T16:58:43.964Z,15.79
2019-05-17T17:01:33.420Z,15.36
2019-05-17T17:04:23.153Z,14.99
2019-05-17T17:07:12.783Z,14.79
2019-05-17T17:10:02.414Z,14.76
2019-05-17T17:12:51.806Z,14.67
2019-05-17T17:15:22.320Z,14.61
2019-05-17T17:18:29.524Z,14.55
2019-05-17T17:21:18.921Z,14.53
2019-05-17T17:23:49.825Z,14.44
2019-05-17T17:26:39.137Z,14.40
2019-05-17T17:29:12.871Z,14.36
2019-05-17T17:32:02.186Z,14.28
2019-05-17T17:34:57.170Z,14.33
2019-05-17T17:37:30.796Z,14.33
2019-05-17T17:40:23.311Z,14.30
2019-05-17T17:43:15.702Z,14.34
2019-05-17T17:46:05.039Z,14.36
2019-05-17T17:48:56.107Z,14.49
2019-05-17T17:51:45.914Z,14.43
2019-05-17T17:54:35.219Z,14.39
2019-05-17T17:57:28.055Z,14.31
2019-05-17T18:00:17.912Z,14.25
2019-05-17T18:05:29.081Z,14.42
2019-05-17T18:08:40.179Z,14.41
2019-05-17T18:11:14.125Z,14.35
2019-05-17T18:14:13.210Z,14.33
2019-05-17T18:16:38.539Z,14.31
2019-05-17T18:19:15.047Z,14.25
2019-05-17T18:21:49.119Z,14.23
2019-05-17T18:24:23.052Z,14.17
2019-05-17T18:26:58.832Z,14.11
2019-05-17T18:29:58.331Z,14.06
2019-05-17T18:32:36.064Z,14.01
2019-05-17T18:35:40.511Z,13.99
2019-05-17T18:38:40.996Z,13.91
2019-05-17T18:41:11.254Z,13.88
2019-05-17T18:44:02.655Z,13.92
2019-05-17T18:46:54.905Z,13.93
2019-05-17T18:52:29.212Z,13.86
2019-05-17T18:54:59.492Z,13.79
2019-05-17T18:57:48.812Z,13.70
2019-05-17T19:00:19.317Z,13.63
2019-05-17T19:03:02.029Z,13.57
2019-05-17T19:05:51.336Z,13.49
2019-05-17T19:08:24.099Z,13.44
2019-05-17T19:14:17.080Z,13.36
2019-05-17T19:17:26.601Z,13.26
2019-05-17T19:20:20.768Z,13.16
2019-05-17T19:23:10.301Z,13.06
2019-05-17T19:25:42.480Z,12.95
2019-05-17T19:31:24.173Z,12.78
2019-05-17T19:33:54.456Z,12.81
2019-05-17T19:39:52.086Z,12.91
2019-05-17T19:42:41.720Z,12.86
2019-05-17T19:45:16.463Z,12.79
2019-05-17T19:51:16.016Z,12.71
2019-05-17T19:54:27.557Z,12.73
2019-05-17T19:57:03.793Z,12.80
2019-05-17T19:59:53.087Z,12.81
2019-05-17T20:02:37.810Z,12.79
2019-05-17T20:05:09.994Z,12.78
2019-05-17T20:10:51.967Z,12.72
2019-05-17T20:13:36.828Z,12.69
2019-05-17T20:16:29.760Z,12.67
2019-05-17T20:19:01.073Z,12.50
2019-05-17T20:22:27.080Z,12.80
2019-05-17T20:24:44.928Z,12.87
2019-05-17T20:27:36.993Z,12.78
2019-05-17T20:30:32.757Z,12.78
2019-05-17T20:33:03.503Z,12.75
2019-05-17T20:35:52.956Z,12.78
2019-05-17T20:38:23.311Z,12.75
2019-05-17T20:40:56.155Z,12.73
2019-05-17T20:43:33.826Z,12.72
2019-05-17T20:46:07.415Z,12.81
2019-05-17T20:48:56.989Z,12.83
2019-05-17T20:51:32.819Z,12.81
2019-05-17T20:54:03.568Z,12.73
2019-05-17T20:56:34.383Z,12.67
2019-05-17T20:59:07.542Z,12.66
2019-05-17T21:01:57.553Z,12.72
2019-05-17T21:04:29.908Z,12.71
2019-05-17T21:07:00.204Z,12.70
2019-05-17T21:09:30.580Z,12.66
2019-05-17T21:12:01.215Z,12.66
2019-05-17T21:21:05.846Z,12.70
2019-05-17T21:23:55.455Z,12.71
2019-05-17T21:29:38.563Z,12.62
2019-05-17T21:32:14.090Z,12.60
2019-05-17T21:34:56.173Z,12.61
2019-05-17T21:37:28.591Z,12.58
2019-05-17T21:40:04.944Z,12.59
2019-05-17T21:42:35.263Z,12.53
2019-05-17T21:45:07.384Z,12.45
2019-05-17T21:47:45.181Z,12.47
2019-05-17T21:50:36.604Z,12.52
2019-05-17T21:53:06.939Z,12.51
2019-05-17T21:55:56.250Z,12.51
2019-05-17T22:01:59.107Z,12.54
2019-05-17T22:04:48.386Z,12.50
2019-05-17T22:08:05.640Z,12.49
2019-05-17T22:11:16.856Z,12.51
2019-05-17T22:14:06.200Z,12.46
2019-05-17T22:16:36.949Z,12.44
2019-05-17T22:19:07.606Z,12.35
2019-05-17T22:21:57.218Z,12.25
2019-05-17T22:24:50.549Z,11.53
2019-05-17T22:27:58.711Z,12.22
2019-05-17T22:30:48.314Z,12.27
2019-05-17T22:33:18.990Z,12.20
2019-05-17T22:38:55.273Z,12.23
2019-05-17T22:42:16.485Z,12.20
2019-05-17T22:44:50.699Z,12.15
2019-05-17T22:47:23.038Z,12.15
2019-05-17T22:50:12.482Z,12.17
2019-05-17T22:52:44.824Z,12.16
2019-05-17T22:55:15.220Z,12.16
2019-05-17T22:58:06.016Z,12.16
2019-05-17T23:00:55.260Z,12.23
2019-05-17T23:09:39.817Z,12.12
2019-05-17T23:12:47.981Z,12.10
2019-05-17T23:15:56.386Z,11.38
2019-05-17T23:19:23.796Z,12.34
2019-05-17T23:28:00.993Z,12.13
2019-05-17T23:33:39.935Z,12.18
2019-05-17T23:36:30.036Z,11.68
2019-05-17T23:39:09.792Z,12.20
2019-05-17T23:41:40.460Z,12.22
2019-05-17T23:44:13.063Z,12.24
2019-05-17T23:47:31.250Z,12.23
2019-05-17T23:49:35.106Z,12.20
2019-05-17T23:52:25.225Z,12.18
2019-05-17T23:54:57.535Z,12.23
2019-05-17T23:57:53.215Z,12.28
